Time;durP1;ratioP1;P1;durP2;ratioP2;P2;SDS_P1;SDS_P2;PMS_P1;PMS_P2;Temp;Humidity;BMP_temperature;BMP_pressure;BME280_temperature;BME280_humidity;BME280_pressure;Samples;Min_cycle;Max_cycle;Signal;HPM_P1;HPM_P2
2021/11/28 00:00:42;;;;;;;5.10;2.60;;;;;;;3.25;95.10;96466.59;5066001;28;20212;-69
2021/11/28 00:03:08;;;;;;;8.23;2.67;;;;;;;3.26;95.14;96457.91;5059981;28;20312;-69
2021/11/28 00:05:34;;;;;;;5.18;2.75;;;;;;;3.28;95.07;96463.94;5065904;28;20032;-69
2021/11/28 00:08:17;;;;;;;7.03;2.95;;;;;;;3.23;95.01;96460.56;5065891;28;20024;-69
2021/11/28 00:11:00;;;;;;;9.57;2.53;;;;;;;3.20;94.82;96460.66;5066282;28;20017;-69
2021/11/28 00:15:55;;;;;;;5.05;2.35;;;;;;;3.24;95.42;96451.03;5065586;28;20045;-69
2021/11/28 00:18:21;;;;;;;12.25;2.53;;;;;;;3.16;95.52;96447.81;5065766;28;20029;-69
2021/11/28 00:20:48;;;;;;;7.55;2.50;;;;;;;3.15;95.33;96456.47;5065468;28;20036;-69
2021/11/28 00:23:13;;;;;;;9.00;3.45;;;;;;;3.21;95.42;96462.38;5065693;28;20084;-69
2021/11/28 00:25:38;;;;;;;11.98;2.95;;;;;;;3.22;95.12;96458.88;5064592;28;20215;-69
2021/11/28 00:28:04;;;;;;;9.02;2.60;;;;;;;3.27;94.76;96458.75;5065521;28;20232;-69
2021/11/28 00:30:30;;;;;;;7.00;2.60;;;;;;;3.18;95.28;96467.66;5065265;28;20080;-69
2021/11/28 00:32:59;;;;;;;5.90;2.80;;;;;;;3.29;94.43;96470.81;5065366;28;20092;-69
2021/11/28 00:35:24;;;;;;;8.80;2.78;;;;;;;3.23;94.55;96470.97;5065400;28;20331;-69
2021/11/28 00:37:50;;;;;;;8.57;2.28;;;;;;;3.21;94.88;96461.50;5065139;28;20036;-69
2021/11/28 00:40:15;;;;;;;9.70;2.70;;;;;;;3.15;94.84;96472.06;5065147;28;20039;-69
2021/11/28 00:42:40;;;;;;;9.77;2.40;;;;;;;3.19;95.03;96471.09;5065279;28;20028;-69
2021/11/28 00:45:06;;;;;;;10.75;2.90;;;;;;;3.16;95.09;96474.63;5065267;28;20146;-69
2021/11/28 00:47:32;;;;;;;6.57;2.40;;;;;;;3.23;94.29;96477.94;5065178;28;20252;-69
2021/11/28 00:52:35;;;;;;;6.72;2.80;;;;;;;3.29;94.45;96481.22;5065288;28;20017;-69
2021/11/28 00:55:02;;;;;;;7.72;2.90;;;;;;;3.16;94.83;96479.81;5065106;28;20048;-69
2021/11/28 00:57:27;;;;;;;7.32;2.97;;;;;;;3.19;94.39;96479.75;5064804;28;20331;-69
2021/11/28 00:59:54;;;;;;;9.52;2.40;;;;;;;3.16;94.54;96482.41;5064984;28;20017;-69
2021/11/28 01:02:20;;;;;;;8.27;2.67;;;;;;;3.15;94.61;96482.44;5064666;28;20111;-69
2021/11/28 01:04:45;;;;;;;10.88;2.63;;;;;;;3.09;94.16;96486.06;5064762;28;20025;-69
2021/11/28 01:07:11;;;;;;;6.93;2.90;;;;;;;3.10;94.23;96485.16;5064655;28;20021;-69
2021/11/28 01:09:37;;;;;;;5.15;2.15;;;;;;;3.18;94.85;96490.19;5064412;28;20044;-69
2021/11/28 01:12:03;;;;;;;6.28;2.55;;;;;;;3.27;94.63;96487.34;5064746;28;20343;-69
2021/11/28 01:14:28;;;;;;;4.60;2.50;;;;;;;3.28;94.05;96489.06;5064456;28;20070;-69
2021/11/28 01:16:54;;;;;;;6.97;3.17;;;;;;;3.25;94.13;96484.78;5057260;28;20356;-69
2021/11/28 01:19:19;;;;;;;4.85;1.92;;;;;;;3.21;94.07;96488.38;5064623;28;20021;-69
2021/11/28 01:21:56;;;;;;;6.90;2.55;;;;;;;3.16;93.40;96490.22;5064316;28;20020;-69
2021/11/28 01:24:21;;;;;;;7.90;2.53;;;;;;;3.13;93.50;96492.06;5064220;28;20025;-69
2021/11/28 01:26:47;;;;;;;5.65;2.70;;;;;;;3.16;93.40;96495.41;5064742;28;20036;-69
2021/11/28 01:29:12;;;;;;;5.82;2.65;;;;;;;3.10;94.10;96490.34;5064151;28;20325;-69
2021/11/28 01:31:38;;;;;;;5.85;2.65;;;;;;;3.17;93.61;96491.94;5064306;28;20028;-69
2021/11/28 01:34:03;;;;;;;8.18;2.78;;;;;;;3.17;93.53;96491.94;5064667;28;20344;-69
2021/11/28 01:36:28;;;;;;;8.65;2.47;;;;;;;3.20;93.84;96497.03;5062889;28;20024;-69
2021/11/28 01:38:54;;;;;;;7.38;2.42;;;;;;;3.18;94.00;96493.63;5064063;28;20024;-69
2021/11/28 01:41:19;;;;;;;6.55;2.45;;;;;;;3.13;93.33;96500.69;5064004;28;20197;-69
2021/11/28 01:43:45;;;;;;;9.35;2.42;;;;;;;3.13;93.24;96500.69;5064149;28;20021;-69
2021/11/28 01:46:11;;;;;;;8.30;2.70;;;;;;;3.04;93.15;96490.50;5064132;28;20325;-69
2021/11/28 01:48:36;;;;;;;5.70;2.40;;;;;;;2.97;94.42;96499.34;5063942;28;20029;-69
2021/11/28 01:51:02;;;;;;;4.65;1.90;;;;;;;3.06;94.26;96499.13;5063976;28;20084;-69
2021/11/28 01:53:28;;;;;;;5.30;2.13;;;;;;;3.13;93.68;96500.69;5063724;28;20029;-69
2021/11/28 01:55:55;;;;;;;4.85;2.13;;;;;;;3.08;94.37;96506.88;5063968;28;20017;-69
2021/11/28 01:58:21;;;;;;;10.73;2.28;;;;;;;3.12;94.55;96501.59;5063920;28;20087;-69
2021/11/28 02:00:53;;;;;;;8.05;2.30;;;;;;;3.20;94.37;96507.44;5063419;28;20316;-69
2021/11/28 02:03:20;;;;;;;4.35;1.95;;;;;;;3.21;94.27;96509.16;5063164;28;20028;-69
2021/11/28 02:05:49;;;;;;;7.72;2.22;;;;;;;3.21;94.72;96509.16;5063280;28;20020;-69
2021/11/28 02:08:15;;;;;;;6.13;2.47;;;;;;;3.22;93.56;96516.06;5063724;28;20217;-69
2021/11/28 02:10:41;;;;;;;5.75;2.20;;;;;;;3.10;94.36;96511.16;5063303;28;20024;-69
2021/11/28 02:13:06;;;;;;;7.20;2.55;;;;;;;2.96;94.04;96510.63;5063693;28;20020;-69
2021/11/28 02:15:33;;;;;;;5.30;2.28;;;;;;;3.08;93.93;96512.94;5063003;28;20032;-69
2021/11/28 02:17:59;;;;;;;9.35;2.38;;;;;;;3.03;94.01;96509.59;5063669;28;20245;-69
2021/11/28 02:20:28;;;;;;;5.72;2.03;;;;;;;3.16;94.07;96516.19;5063632;28;20079;-69
2021/11/28 02:22:54;;;;;;;5.00;1.90;;;;;;;3.19;93.27;96515.25;5063382;28;20063;-69
2021/11/28 02:25:21;;;;;;;6.35;2.15;;;;;;;3.19;93.71;96516.13;5063481;28;20088;-69
2021/11/28 02:27:46;;;;;;;7.47;2.50;;;;;;;3.12;94.28;96508.50;5063260;28;20021;-69
2021/11/28 02:30:16;;;;;;;6.80;2.20;;;;;;;3.15;94.34;96513.63;5063281;28;20096;-69
2021/11/28 02:32:42;;;;;;;5.53;2.05;;;;;;;3.08;94.31;96518.16;5063668;28;20017;-69
2021/11/28 02:35:07;;;;;;;8.13;3.00;;;;;;;3.11;95.31;96507.69;5063163;28;20024;-70
2021/11/28 02:37:33;;;;;;;5.25;2.22;;;;;;;3.13;94.72;96507.66;5063555;28;20025;-70
2021/11/28 02:39:58;;;;;;;5.95;2.03;;;;;;;3.12;95.02;96509.38;5063349;28;20029;-70
2021/11/28 02:42:25;;;;;;;6.80;2.50;;;;;;;3.21;94.40;96509.16;5063419;28;20088;-70
2021/11/28 02:44:50;;;;;;;7.28;2.50;;;;;;;3.22;93.70;96515.19;5063443;28;20028;-70
2021/11/28 02:47:16;;;;;;;7.70;2.90;;;;;;;3.26;93.67;96516.84;5062550;28;20025;-70
2021/11/28 02:49:42;;;;;;;8.25;2.20;;;;;;;3.25;93.66;96504.72;5067275;28;20025;-70
2021/11/28 02:52:11;;;;;;;4.45;2.40;;;;;;;3.18;93.77;96509.22;5067212;28;20358;-70
2021/11/28 02:54:37;;;;;;;10.73;2.88;;;;;;;3.26;93.27;96509.88;5067259;28;20017;-70
2021/11/28 02:57:03;;;;;;;6.05;2.45;;;;;;;3.15;94.70;96509.31;5067072;28;20396;-70
2021/11/28 02:59:29;;;;;;;5.97;2.60;;;;;;;3.17;94.66;96502.34;5067313;28;20028;-69
2021/11/28 03:01:54;;;;;;;6.15;2.72;;;;;;;3.12;94.40;96504.19;5067113;28;20028;-69
2021/11/28 03:04:19;;;;;;;5.05;2.40;;;;;;;3.10;94.59;96505.94;5066850;28;20325;-69
2021/11/28 03:06:44;;;;;;;3.63;2.40;;;;;;;3.11;95.20;96507.69;5066995;28;20040;-69
2021/11/28 03:09:10;;;;;;;9.40;3.15;;;;;;;3.10;94.08;96511.16;5067037;28;20025;-69
2021/11/28 03:11:35;;;;;;;8.00;2.75;;;;;;;3.09;94.54;96509.44;5066975;28;20027;-69
2021/11/28 03:14:00;;;;;;;10.98;3.67;;;;;;;3.21;94.14;96509.16;5066790;28;20067;-69
2021/11/28 03:16:26;;;;;;;8.93;3.05;;;;;;;3.19;93.94;96510.94;5066739;28;20151;-69
2021/11/28 03:18:53;;;;;;;7.22;2.47;;;;;;;3.12;93.88;96511.97;5066938;28;20044;-69
2021/11/28 03:21:22;;;;;;;6.47;2.70;;;;;;;3.11;94.01;96515.47;5066591;28;20021;-69
2021/11/28 03:23:49;;;;;;;7.07;3.00;;;;;;;3.16;94.61;96520.56;5067241;28;20236;-69
2021/11/28 03:26:20;;;;;;;5.10;2.92;;;;;;;3.21;94.55;96519.56;5066448;28;20092;-69
2021/11/28 03:28:52;;;;;;;7.47;3.27;;;;;;;3.10;94.32;96521.53;5066633;28;20036;-69
2021/11/28 03:31:19;;;;;;;7.28;2.53;;;;;;;3.15;94.11;96519.69;5066648;28;20228;-69
2021/11/28 03:33:44;;;;;;;5.05;2.40;;;;;;;3.17;95.00;96522.25;5066653;28;20032;-69
2021/11/28 03:36:12;;;;;;;11.15;3.30;;;;;;;3.19;95.06;96515.25;5066333;28;20216;-69
2021/11/28 03:38:39;;;;;;;11.50;3.80;;;;;;;3.07;94.53;96513.81;5066734;28;20091;-69
2021/11/28 03:41:06;;;;;;;7.63;3.10;;;;;;;3.09;94.33;96517.25;5066618;28;20031;-69
2021/11/28 03:43:31;;;;;;;6.53;3.47;;;;;;;3.24;94.15;96516.88;5066215;28;20052;-69
2021/11/28 03:45:56;;;;;;;6.22;2.92;;;;;;;3.34;93.21;96520.97;5066098;28;20024;-69
2021/11/28 03:48:22;;;;;;;14.48;3.60;;;;;;;3.28;93.42;96515.91;5066403;28;20023;-69
2021/11/28 03:50:47;;;;;;;7.13;2.92;;;;;;;3.28;93.95;96515.91;5066554;28;20060;-69
2021/11/28 03:53:13;;;;;;;9.27;3.78;;;;;;;3.23;93.72;96512.56;5066019;28;20380;-69
2021/11/28 03:55:38;;;;;;;11.45;3.60;;;;;;;3.10;93.89;96520.72;5065964;28;20100;-69
2021/11/28 03:58:05;;;;;;;9.23;3.25;;;;;;;3.16;94.32;96521.41;5066419;28;20080;-69
2021/11/28 04:00:31;;;;;;;13.98;3.80;;;;;;;3.14;94.65;96520.59;5064665;28;20037;-69
2021/11/28 04:02:57;;;;;;;21.92;4.28;;;;;;;3.15;94.12;96519.69;5065825;28;20032;-69
2021/11/28 04:05:22;;;;;;;6.15;3.60;;;;;;;3.14;93.94;96518.00;5065976;28;20025;-69
2021/11/28 04:07:47;;;;;;;9.13;3.63;;;;;;;3.25;93.62;96526.38;5065755;28;20032;-69
2021/11/28 04:10:13;;;;;;;8.93;3.42;;;;;;;3.19;93.87;96521.31;5065701;28;20332;-69
2021/11/28 04:12:39;;;;;;;13.23;4.00;;;;;;;3.24;93.70;96529.00;5065510;28;20017;-69
2021/11/28 04:15:05;;;;;;;9.20;4.07;;;;;;;3.32;93.39;96530.53;5065600;28;20206;-69
2021/11/28 04:17:31;;;;;;;8.18;4.50;;;;;;;3.27;93.49;96540.22;5065526;28;20217;-69
2021/11/28 04:19:57;;;;;;;9.73;4.35;;;;;;;3.39;93.46;96524.28;5065804;28;20054;-69
2021/11/28 04:22:23;;;;;;;10.90;5.18;;;;;;;3.31;93.23;96523.63;5065731;28;20233;-69
2021/11/28 04:24:49;;;;;;;11.32;5.10;;;;;;;3.29;93.33;96522.81;5065391;28;20036;-69
2021/11/28 04:27:14;;;;;;;12.65;4.50;;;;;;;3.27;93.73;96519.41;5065309;28;20252;-69
2021/11/28 04:29:40;;;;;;;12.98;5.65;;;;;;;3.21;94.17;96518.69;5065482;28;20020;-69
2021/11/28 04:32:06;;;;;;;13.48;5.05;;;;;;;3.18;94.00;96509.22;5065276;28;20027;-69
2021/11/28 04:34:31;;;;;;;13.02;4.53;;;;;;;3.24;94.94;96514.28;5065449;28;20044;-69
2021/11/28 04:36:56;;;;;;;8.70;4.22;;;;;;;3.24;94.84;96509.09;5065089;28;20062;-69
2021/11/28 04:39:22;;;;;;;10.10;4.65;;;;;;;3.20;94.22;96507.44;5065416;28;20017;-69
2021/11/28 04:41:47;;;;;;;12.70;4.70;;;;;;;3.19;94.49;96516.13;5065243;28;20036;-69
2021/11/28 04:44:13;;;;;;;11.27;4.20;;;;;;;3.25;94.60;96515.97;5063970;28;20080;-69
2021/11/28 04:46:39;;;;;;;10.90;4.68;;;;;;;3.17;94.17;96511.88;5065212;28;20441;-69
2021/11/28 04:49:05;;;;;;;13.93;4.93;;;;;;;3.21;94.53;96509.16;5064976;28;20084;-69
2021/11/28 04:51:30;;;;;;;14.43;4.38;;;;;;;3.10;94.99;96508.56;5065006;28;20351;-69
2021/11/28 04:53:57;;;;;;;9.02;5.00;;;;;;;3.09;94.72;96514.66;5065139;28;20028;-69
2021/11/28 04:56:24;;;;;;;8.95;4.32;;;;;;;3.16;95.04;96511.00;5064867;28;20076;-69
2021/11/28 04:58:49;;;;;;;8.05;4.00;;;;;;;3.21;94.70;96519.56;5065011;28;20212;-69
2021/11/28 05:01:15;;;;;;;9.60;4.75;;;;;;;3.14;94.64;96518.00;5064970;28;20020;-69
2021/11/28 05:03:40;;;;;;;8.55;4.57;;;;;;;3.15;93.97;96514.50;5064623;28;20092;-69
2021/11/28 05:06:05;;;;;;;10.45;4.53;;;;;;;3.05;94.05;96507.81;5064742;28;20092;-69
2021/11/28 05:08:30;;;;;;;11.85;5.25;;;;;;;3.07;94.70;96507.78;5064597;28;20066;-69
2021/11/28 05:10:56;;;;;;;15.02;5.50;;;;;;;3.03;94.51;96509.59;5064750;28;20200;-69
2021/11/28 05:13:21;;;;;;;17.98;5.00;;;;;;;3.07;94.88;96506.03;5064758;28;20025;-69
2021/11/28 05:15:46;;;;;;;11.38;4.22;;;;;;;3.08;95.33;96496.50;5064428;28;20033;-69
2021/11/28 05:18:12;;;;;;;9.43;4.40;;;;;;;3.04;95.24;96500.06;5064680;28;20029;-69
2021/11/28 05:20:37;;;;;;;12.13;4.88;;;;;;;3.02;95.46;96492.31;5064281;28;20032;-69
2021/11/28 05:23:02;;;;;;;10.45;4.38;;;;;;;3.11;95.18;96507.69;5064462;28;20124;-69
2021/11/28 05:25:28;;;;;;;9.80;4.72;;;;;;;3.01;95.20;96506.16;5064204;28;20029;-69
2021/11/28 05:27:53;;;;;;;15.77;4.75;;;;;;;3.04;95.37;96490.50;5064483;28;20024;-69
2021/11/28 05:30:18;;;;;;;10.85;4.95;;;;;;;3.01;94.62;96493.19;5064428;28;20028;-69
2021/11/28 05:32:44;;;;;;;10.85;5.07;;;;;;;3.06;94.83;96493.94;5064177;28;20020;-69
2021/11/28 05:35:09;;;;;;;10.80;5.20;;;;;;;3.01;94.76;96490.56;5064143;28;20025;-69
2021/11/28 05:37:35;;;;;;;13.02;4.97;;;;;;;2.96;94.52;96492.44;5064224;28;20025;-69
2021/11/28 05:40:01;;;;;;;10.00;5.18;;;;;;;2.95;95.26;96495.09;5064467;28;20305;-69
2021/11/28 05:42:26;;;;;;;9.85;5.15;;;;;;;2.98;94.58;96501.06;5064151;28;20247;-69
2021/11/28 05:44:52;;;;;;;10.88;4.72;;;;;;;3.00;95.10;96501.88;5063843;28;20017;-69
2021/11/28 05:47:17;;;;;;;10.20;4.97;;;;;;;2.93;95.15;96502.91;5064053;28;20075;-69
2021/11/28 05:49:42;;;;;;;10.65;4.88;;;;;;;2.91;94.47;96504.69;5063840;28;20025;-69
2021/11/28 05:52:08;;;;;;;9.95;4.57;;;;;;;2.91;94.10;96509.03;5064234;28;20031;-69
2021/11/28 05:54:33;;;;;;;8.65;4.60;;;;;;;2.89;94.17;96500.41;5064397;28;20099;-69
2021/11/28 05:56:58;;;;;;;12.93;5.22;;;;;;;2.71;94.81;96501.69;5064324;28;20084;-69
2021/11/28 05:59:24;;;;;;;9.90;4.30;;;;;;;2.57;95.03;96503.75;5064301;28;20217;-69
2021/11/28 06:01:49;;;;;;;8.30;4.50;;;;;;;2.56;95.21;96496.84;5063844;28;20020;-69
2021/11/28 06:04:14;;;;;;;15.13;5.07;;;;;;;2.41;95.18;96506.72;5063703;28;20248;-69
2021/11/28 06:06:40;;;;;;;8.85;4.22;;;;;;;2.25;95.93;96495.81;5063756;28;20087;-69
2021/11/28 06:09:05;;;;;;;11.65;5.10;;;;;;;2.20;96.11;96502.81;5063779;28;20021;-69
2021/11/28 06:11:31;;;;;;;11.70;4.65;;;;;;;2.06;96.33;96499.69;5063709;28;20088;-69
2021/11/28 06:13:56;;;;;;;18.90;6.55;;;;;;;2.08;96.55;96492.69;5063474;28;20048;-69
2021/11/28 06:16:22;;;;;;;10.50;5.13;;;;;;;1.99;96.41;96503.25;5063251;28;20061;-69
2021/11/28 06:18:47;;;;;;;11.32;5.50;;;;;;;1.94;96.95;96502.50;5063674;28;20035;-69
2021/11/28 06:21:13;;;;;;;12.07;5.85;;;;;;;1.90;97.64;96513.84;5063516;28;20025;-69
2021/11/28 06:23:38;;;;;;;15.55;5.75;;;;;;;1.86;98.12;96504.38;5062668;28;20020;-69
2021/11/28 06:26:05;;;;;;;14.57;5.32;;;;;;;1.84;98.13;96500.97;5063292;28;20025;-69
2021/11/28 06:28:30;;;;;;;10.63;4.75;;;;;;;1.82;97.70;96507.94;5063510;28;20374;-69
2021/11/28 06:30:56;;;;;;;8.10;4.50;;;;;;;1.82;98.23;96510.53;5063206;28;20025;-69
2021/11/28 06:33:21;;;;;;;12.00;5.00;;;;;;;1.74;98.12;96510.66;5063694;28;20017;-69
2021/11/28 06:35:47;;;;;;;6.13;4.10;;;;;;;1.77;98.27;96520.97;5063057;28;20025;-69
2021/11/28 06:38:12;;;;;;;8.95;4.60;;;;;;;1.77;98.28;96517.56;5063469;28;20024;-69
2021/11/28 06:40:37;;;;;;;10.10;5.07;;;;;;;1.75;98.33;96529.69;5063368;28;20050;-69
2021/11/28 06:43:03;;;;;;;11.73;4.70;;;;;;;1.74;98.07;96528.81;5062988;28;20036;-69
2021/11/28 06:45:29;;;;;;;16.00;5.28;;;;;;;1.74;98.07;96534.00;5063115;28;20056;-69
2021/11/28 06:47:54;;;;;;;8.73;4.95;;;;;;;1.75;98.22;96530.53;5063259;28;20031;-69
2021/11/28 06:50:19;;;;;;;9.77;5.10;;;;;;;1.87;98.00;96542.41;5063223;28;20091;-69
2021/11/28 06:52:45;;;;;;;11.57;5.20;;;;;;;1.97;98.36;96541.34;5063069;28;20092;-69
2021/11/28 06:55:11;;;;;;;11.40;5.30;;;;;;;2.10;98.42;96542.81;5063006;28;20041;-69
2021/11/28 06:57:37;;;;;;;10.63;4.95;;;;;;;2.10;98.29;96546.28;5063447;28;20017;-69
2021/11/28 07:00:05;;;;;;;11.63;4.80;;;;;;;2.20;97.97;96549.53;5062928;28;20369;-69
2021/11/28 07:02:30;;;;;;;12.40;4.57;;;;;;;2.30;97.98;96538.06;5063130;28;20074;-69
2021/11/28 07:04:58;;;;;;;9.98;5.05;;;;;;;2.31;97.88;96539.78;5062934;28;20186;-69
2021/11/28 07:07:24;;;;;;;13.45;5.03;;;;;;;2.39;97.67;96545.69;5063162;28;20021;-69
2021/11/28 07:09:49;;;;;;;7.85;3.95;;;;;;;2.35;97.40;96549.22;5062916;28;20031;-69
2021/11/28 07:12:14;;;;;;;6.43;3.35;;;;;;;2.41;97.72;96559.50;5062488;28;20029;-69
2021/11/28 07:14:40;;;;;;;9.48;4.15;;;;;;;2.46;96.96;96562.84;5062727;28;20081;-69
2021/11/28 07:17:05;;;;;;;14.35;4.38;;;;;;;2.45;97.26;96566.31;5062743;28;20052;-69
2021/11/28 07:19:30;;;;;;;8.70;4.43;;;;;;;2.42;96.81;96556.00;5062644;28;20035;-69
2021/11/28 07:21:57;;;;;;;9.68;4.05;;;;;;;2.51;97.28;96550.63;5062746;28;20025;-69
2021/11/28 07:24:22;;;;;;;10.02;3.83;;;;;;;2.59;96.76;96553.06;5062728;28;20079;-69
2021/11/28 07:26:48;;;;;;;9.45;4.50;;;;;;;2.57;96.62;96550.50;5062896;28;20360;-69
2021/11/28 07:29:13;;;;;;;8.60;4.38;;;;;;;2.59;97.38;96559.09;5063105;28;20316;-69
2021/11/28 07:31:38;;;;;;;7.38;4.03;;;;;;;2.61;97.62;96556.47;5062462;28;20028;-69
2021/11/28 07:34:03;;;;;;;8.35;3.65;;;;;;;2.66;96.99;96563.25;5065642;28;20021;-69
2021/11/28 07:36:29;;;;;;;11.20;4.28;;;;;;;2.76;96.83;96567.38;5069959;28;20017;-69
2021/11/28 07:38:54;;;;;;;7.22;3.75;;;;;;;2.76;96.24;96567.38;5066596;28;20020;-69
2021/11/28 07:41:19;;;;;;;5.38;3.35;;;;;;;2.80;96.23;96569.03;5066347;28;20021;-69
2021/11/28 07:43:45;;;;;;;7.10;3.92;;;;;;;2.71;96.27;96564.03;5066236;28;20316;-69
2021/11/28 07:46:10;;;;;;;10.02;4.10;;;;;;;2.69;96.40;96568.38;5066623;28;20029;-69
2021/11/28 07:48:36;;;;;;;5.93;3.85;;;;;;;2.74;96.90;96569.16;5066389;28;20087;-69
2021/11/28 07:51:01;;;;;;;8.18;3.60;;;;;;;2.77;95.84;96563.88;5066776;28;20329;-69
2021/11/28 07:53:27;;;;;;;6.75;3.92;;;;;;;2.75;96.46;96568.25;5066764;28;20054;-69
2021/11/28 07:55:53;;;;;;;8.40;4.47;;;;;;;2.75;96.04;96576.03;5066691;28;20028;-69
2021/11/28 07:58:18;;;;;;;7.93;4.22;;;;;;;2.73;96.09;96575.25;5066319;28;20021;-69
2021/11/28 08:00:44;;;;;;;8.30;4.40;;;;;;;2.84;95.97;96570.66;5066340;28;20052;-69
2021/11/28 08:03:09;;;;;;;8.52;4.45;;;;;;;2.94;95.34;96571.31;5065833;28;20092;-69
2021/11/28 08:05:35;;;;;;;7.82;3.83;;;;;;;2.99;95.20;96570.31;5065950;28;20021;-69
2021/11/28 08:08:00;;;;;;;9.73;4.20;;;;;;;3.07;96.00;96577.94;5065781;28;20317;-69
2021/11/28 08:10:26;;;;;;;8.70;3.95;;;;;;;3.14;95.33;96575.19;5065980;28;20021;-69
2021/11/28 08:12:52;;;;;;;6.60;3.80;;;;;;;3.15;94.63;96576.88;5065604;28;20052;-69
2021/11/28 08:15:18;;;;;;;7.82;4.07;;;;;;;3.16;94.60;96573.38;5065822;28;20028;-69
2021/11/28 08:17:46;;;;;;;9.07;3.97;;;;;;;3.29;94.49;96580.00;5065447;28;20071;-69
2021/11/28 08:20:12;;;;;;;10.18;4.35;;;;;;;3.30;94.41;96580.84;5065565;28;20063;-68
2021/11/28 08:22:39;;;;;;;7.40;3.60;;;;;;;3.35;93.82;96582.44;5065588;28;20024;-69
2021/11/28 08:25:07;;;;;;;4.82;2.83;;;;;;;3.45;94.13;96583.09;5066041;28;20035;-69
2021/11/28 08:27:33;;;;;;;6.65;3.53;;;;;;;3.35;94.17;96590.25;5066075;28;20035;-69
2021/11/28 08:30:03;;;;;;;6.60;3.30;;;;;;;3.46;94.75;96590.88;5065891;28;20297;-69
2021/11/28 08:32:29;;;;;;;8.05;3.42;;;;;;;3.50;94.24;96589.03;5065378;28;20021;-69
2021/11/28 08:34:54;;;;;;;9.48;3.40;;;;;;;3.43;94.07;96588.34;5065345;28;20067;-69
2021/11/28 08:37:20;;;;;;;5.50;3.42;;;;;;;3.50;94.36;96595.09;5064844;28;20040;-69
2021/11/28 08:39:46;;;;;;;9.38;3.60;;;;;;;3.55;93.21;96593.22;5065292;28;20226;-69
2021/11/28 08:42:13;;;;;;;7.28;3.58;;;;;;;3.53;93.04;96599.34;5065069;28;20037;-69
2021/11/28 08:44:38;;;;;;;6.50;3.65;;;;;;;3.53;93.48;96600.22;5064685;28;20363;-69
2021/11/28 08:47:04;;;;;;;9.10;4.00;;;;;;;3.50;93.45;96599.44;5064337;28;20021;-69
2021/11/28 08:49:29;;;;;;;5.85;3.15;;;;;;;3.40;93.75;96609.22;5065193;28;20080;-69
2021/11/28 08:51:54;;;;;;;9.77;4.25;;;;;;;3.46;94.86;96603.88;5064855;28;20039;-69
2021/11/28 08:54:20;;;;;;;8.02;3.95;;;;;;;3.44;94.95;96616.03;5064937;28;20025;-69
2021/11/28 08:56:45;;;;;;;8.25;4.15;;;;;;;3.40;94.79;96611.81;5063665;28;20253;-69
2021/11/28 08:59:11;;;;;;;6.30;4.05;;;;;;;3.36;94.87;96623.16;5063928;28;20381;-69
2021/11/28 09:01:37;;;;;;;6.60;4.10;;;;;;;3.41;95.01;96621.31;5064339;28;20029;-69
2021/11/28 09:04:05;;;;;;;7.97;4.55;;;;;;;3.39;94.90;96617.88;5063630;28;20025;-69
2021/11/28 09:06:30;;;;;;;8.50;4.72;;;;;;;3.17;95.49;96621.03;5063899;28;20251;-69
2021/11/28 09:08:55;;;;;;;9.80;5.20;;;;;;;3.29;95.28;96626.78;5063281;28;20040;-69
2021/11/28 09:11:20;;;;;;;13.93;6.07;;;;;;;3.30;95.12;96606.84;5063729;28;20024;-69
2021/11/28 09:13:46;;;;;;;13.70;6.00;;;;;;;3.18;95.39;96618.38;5063761;28;20070;-69
2021/11/28 09:16:11;;;;;;;15.25;6.53;;;;;;;3.23;96.05;96628.69;5063358;28;20367;-69
2021/11/28 09:21:24;;;;;;;9.05;4.95;;;;;;;3.34;95.89;96614.56;5045930;28;20103;-68
2021/11/28 09:26:33;;;;;;;11.68;6.10;;;;;;;3.29;96.55;96621.59;5062934;28;20109;-68
2021/11/28 09:29:00;;;;;;;11.57;5.72;;;;;;;3.37;95.83;96630.06;5063646;28;20044;-68
2021/11/28 09:31:27;;;;;;;12.25;5.88;;;;;;;3.42;95.62;96636.00;5063294;28;20351;-68
2021/11/28 09:33:52;;;;;;;10.05;6.25;;;;;;;3.38;95.91;96615.31;5063500;28;20083;-68
2021/11/28 09:36:18;;;;;;;10.82;6.60;;;;;;;3.32;95.34;96625.88;5062874;28;20020;-68
2021/11/28 09:38:43;;;;;;;12.77;6.72;;;;;;;3.25;96.05;96624.28;5062916;28;20213;-68
2021/11/28 09:41:11;;;;;;;10.00;5.47;;;;;;;3.36;95.65;96628.34;5063298;28;20047;-68
2021/11/28 09:43:41;;;;;;;12.68;5.85;;;;;;;3.29;95.44;96616.38;5063004;28;20025;-68
2021/11/28 09:46:08;;;;;;;11.05;5.57;;;;;;;3.39;95.66;96622.25;5063333;28;20182;-68
2021/11/28 09:48:34;;;;;;;11.43;5.20;;;;;;;3.23;95.79;96626.09;5054262;28;20232;-68
2021/11/28 09:51:05;;;;;;;11.38;5.25;;;;;;;3.35;95.32;96613.66;5063260;28;21136;-68
2021/11/28 09:53:32;;;;;;;23.83;20.92;;;;;;;3.25;95.31;96627.75;5063114;28;20028;-68
2021/11/28 09:55:59;;;;;;;11.82;6.65;;;;;;;3.23;95.93;96621.72;5062918;28;20043;-68
2021/11/28 09:58:25;;;;;;;11.25;6.60;;;;;;;3.24;95.77;96615.66;5061902;28;20025;-68
2021/11/28 10:00:51;;;;;;;11.43;6.03;;;;;;;3.36;95.89;96623.16;5062565;28;20059;-68
2021/11/28 10:03:16;;;;;;;10.82;5.40;;;;;;;3.27;95.89;96623.38;5062732;28;20020;-68
2021/11/28 10:05:42;;;;;;;8.48;5.18;;;;;;;3.42;96.39;96625.59;5063041;28;20048;-68
2021/11/28 10:08:08;;;;;;;11.40;6.75;;;;;;;3.51;96.38;96616.75;5062756;28;20083;-68
2021/11/28 10:10:34;;;;;;;8.68;5.63;;;;;;;3.42;95.70;96617.81;5062681;28;20338;-68
2021/11/28 10:13:00;;;;;;;10.25;6.18;;;;;;;3.41;96.53;96616.09;5062737;28;20033;-69
2021/11/28 10:15:28;;;;;;;11.20;5.72;;;;;;;3.37;95.84;96614.47;5062379;28;20020;-69
2021/11/28 10:17:53;;;;;;;9.38;5.35;;;;;;;3.51;96.46;96622.78;5062374;28;20051;-69
2021/11/28 10:20:21;;;;;;;9.30;5.78;;;;;;;3.53;96.45;96621.03;5062707;28;20243;-69
2021/11/28 10:22:47;;;;;;;9.10;4.97;;;;;;;3.49;96.37;96618.53;5062933;28;20017;-69
2021/11/28 10:25:23;;;;;;;7.82;5.00;;;;;;;3.39;95.83;96620.47;5062308;28;20025;-69
2021/11/28 10:27:52;;;;;;;8.88;5.57;;;;;;;3.49;96.49;96613.31;5062053;28;20027;-69
2021/11/28 10:30:26;;;;;;;11.32;5.70;;;;;;;3.61;96.04;96613.88;5062533;28;20021;-69
2021/11/28 10:32:53;;;;;;;9.82;5.82;;;;;;;3.60;95.28;96616.50;5053543;28;20220;-66
2021/11/28 10:35:19;;;;;;;9.43;5.50;;;;;;;3.58;96.07;96608.75;5059913;28;20084;-67
2021/11/28 10:37:48;;;;;;;8.80;5.05;;;;;;;3.51;95.66;96612.38;5062059;28;20025;-68
2021/11/28 10:40:19;;;;;;;9.68;5.43;;;;;;;3.51;96.09;96606.34;5063418;28;20031;-70
2021/11/28 10:42:48;;;;;;;10.10;5.57;;;;;;;3.44;96.72;96599.56;5063064;28;20209;-70
2021/11/28 10:45:16;;;;;;;9.50;5.45;;;;;;;3.63;96.99;96601.69;5063654;28;20198;-70
2021/11/28 10:47:46;;;;;;;9.90;5.18;;;;;;;3.64;95.72;96608.59;5063725;28;20316;-70
2021/11/28 10:50:20;;;;;;;11.02;5.60;;;;;;;3.61;96.64;96603.47;5063706;28;20048;-70
2021/11/28 10:53:02;;;;;;;10.95;5.60;;;;;;;3.71;96.68;96610.19;5063663;28;20052;-70
2021/11/28 10:55:31;;;;;;;;;;;;;;;3.68;96.30;96605.06;5064202;28;20051;-70
2021/11/28 10:58:11;;;;;;;10.63;5.72;;;;;;;3.74;95.73;96594.47;5063653;28;19904;-70
2021/11/28 11:00:40;;;;;;;12.90;5.50;;;;;;;3.86;95.61;96603.75;5063647;28;20071;-70
2021/11/28 11:03:20;;;;;;;12.43;6.75;;;;;;;3.84;96.19;96601.19;5063821;28;20025;-70
2021/11/28 11:05:49;;;;;;;14.68;6.97;;;;;;;3.87;96.42;96598.50;5063495;28;20197;-70
2021/11/28 11:08:17;;;;;;;15.80;7.13;;;;;;;3.91;96.03;96597.50;5063541;28;20021;-70
2021/11/28 11:10:51;;;;;;;12.48;6.00;;;;;;;3.93;94.92;96594.88;5067453;28;20216;-70
2021/11/28 11:13:19;;;;;;;8.98;5.60;;;;;;;3.82;94.71;96602.94;5067509;28;20024;-70
2021/11/28 11:15:50;;;;;;;9.48;5.40;;;;;;;3.89;95.01;96603.66;5067479;28;20029;-70
2021/11/28 11:18:21;;;;;;;10.35;5.55;;;;;;;3.83;94.76;96594.25;5067442;28;20024;-70
2021/11/28 11:21:03;;;;;;;9.35;6.13;;;;;;;3.86;95.63;96599.38;5067310;28;20043;-70
2021/11/28 11:23:44;;;;;;;10.05;6.00;;;;;;;3.94;95.59;96592.22;5067556;28;20021;-70
2021/11/28 11:26:16;;;;;;;15.65;4.72;;;;;;;4.04;95.24;96593.69;5067431;28;20025;-70
2021/11/28 11:28:59;;;;;;;10.00;5.78;;;;;;;4.07;95.19;96598.81;5067436;28;20309;-70
2021/11/28 11:31:25;;;;;;;9.00;5.10;;;;;;;4.07;94.98;96596.22;5065537;28;20031;-70
2021/11/28 11:33:50;;;;;;;9.98;4.47;;;;;;;4.11;94.38;96595.25;5066890;28;20075;-70
2021/11/28 11:36:15;;;;;;;9.77;5.88;;;;;;;4.06;95.03;96591.91;5067033;28;20021;-70
2021/11/28 11:38:41;;;;;;;9.07;5.28;;;;;;;4.11;94.89;96595.25;5067015;28;20088;-70
2021/11/28 11:41:06;;;;;;;8.65;5.43;;;;;;;4.04;94.66;96588.50;5066946;28;20017;-70
2021/11/28 11:43:33;;;;;;;7.47;4.82;;;;;;;4.12;94.24;96594.34;5066899;28;20032;-70
2021/11/28 11:46:02;;;;;;;8.23;5.47;;;;;;;4.07;94.71;96588.41;5067024;28;20035;-70